Time;durP1;ratioP1;P1;durP2;ratioP2;P2;SDS_P1;SDS_P2;PMS_P1;PMS_P2;Temp;Humidity;BMP_temperature;BMP_pressure;BME280_temperature;BME280_humidity;BME280_pressure;Samples;Min_cycle;Max_cycle;Signal;HPM_P1;HPM_P2
2021/12/05 00:21:03;;;;;;;39.07;27.23;;;;;;;-1.28;93.50;99339.10;1683024;84;21042;-74
2021/12/05 00:23:27;;;;;;;35.23;25.57;;;;;;;-1.22;93.43;99329.15;1684430;83;21232;-84
2021/12/05 00:25:53;;;;;;;36.77;24.37;;;;;;;-1.22;93.20;99332.61;1749326;81;21160;-82
2021/12/05 00:42:00;;;;;;;37.90;25.63;;;;;;;-1.30;93.10;99340.63;1728792;80;21462;-77
2021/12/05 01:02:41;;;;;;;44.53;25.20;;;;;;;-1.16;92.78;99339.80;1703591;82;21232;-85
2021/12/05 01:15:41;;;;;;;33.73;23.03;;;;;;;-1.29;91.75;99325.09;1734522;81;21030;-83
2021/12/05 01:18:16;;;;;;;35.60;22.73;;;;;;;-1.34;91.92;99327.45;1779347;80;20929;-82
2021/12/05 01:20:45;;;;;;;34.67;23.62;;;;;;;-1.39;92.07;99320.63;1723925;81;20956;-84
2021/12/05 01:23:42;;;;;;;32.67;21.77;;;;;;;-1.41;92.30;99320.80;1781272;80;21044;-82
2021/12/05 01:25:57;;;;;;;24.83;16.33;;;;;;;-1.38;92.44;99331.47;1755355;81;21003;-82
2021/12/05 01:28:52;;;;;;;32.37;21.70;;;;;;;-1.43;92.49;99333.83;1761679;80;21144;-76
2021/12/05 01:31:21;;;;;;;40.37;25.77;;;;;;;-1.47;92.60;99326.78;1751745;80;20980;-77
2021/12/05 01:57:22;;;;;;;32.23;21.90;;;;;;;-1.66;93.55;99360.77;1753132;81;21505;-76
2021/12/05 02:16:05;;;;;;;32.30;22.30;;;;;;;-1.61;93.44;99341.28;1753112;81;22195;-75
2021/12/05 02:32:49;;;;;;;38.93;23.30;;;;;;;-1.64;93.57;99338.52;1736022;82;21096;-77
2021/12/05 02:40:27;;;;;;;35.20;23.23;;;;;;;-1.73;93.58;99346.19;1731010;81;22362;-78
2021/12/05 02:43:04;;;;;;;34.00;23.60;;;;;;;-1.76;93.63;99347.34;1729576;82;21499;-77
2021/12/05 02:45:25;;;;;;;35.47;21.43;;;;;;;-1.79;93.64;99344.27;1729770;82;21502;-76
2021/12/05 02:47:53;;;;;;;27.50;17.87;;;;;;;-1.85;93.78;99344.97;1730670;82;21128;-79
2021/12/05 02:50:23;;;;;;;28.97;21.73;;;;;;;-1.87;93.98;99341.19;1736568;81;21015;-78
2021/12/05 02:52:52;;;;;;;29.73;21.93;;;;;;;-1.88;93.99;99342.70;1753660;80;21028;-77
2021/12/05 02:55:35;;;;;;;30.83;20.40;;;;;;;-1.89;94.10;99333.98;1728873;82;21821;-78
2021/12/05 02:58:02;;;;;;;28.53;17.97;;;;;;;-1.86;94.18;99334.10;1727535;82;20976;-77
2021/12/05 03:03:22;;;;;;;33.53;23.50;;;;;;;-1.79;94.16;99336.36;1756534;80;21784;-77
2021/12/05 03:05:55;;;;;;;27.57;18.43;;;;;;;-1.73;94.20;99334.82;1732893;81;21091;-76
2021/12/05 03:08:20;;;;;;;25.67;20.10;;;;;;;-1.74;93.94;99332.69;1779327;80;21031;-75
2021/12/05 03:10:49;;;;;;;32.90;22.37;;;;;;;-1.79;93.82;99331.09;1753396;80;21083;-81
2021/12/05 03:13:16;;;;;;;23.27;11.97;;;;;;;-1.88;93.92;99317.17;1785696;79;21053;-82
2021/12/05 03:15:43;;;;;;;29.47;19.90;;;;;;;-1.92;94.26;99313.23;1759050;81;21048;-77
2021/12/05 03:18:10;;;;;;;31.77;19.03;;;;;;;-1.94;94.36;99309.16;1758957;81;20989;-80
2021/12/05 03:20:36;;;;;;;27.47;18.97;;;;;;;-1.97;94.55;99298.48;1765610;80;21481;-78
2021/12/05 03:23:03;;;;;;;28.60;21.60;;;;;;;-1.97;94.66;99287.13;1790577;80;21082;-78
2021/12/05 03:25:31;;;;;;;31.67;21.03;;;;;;;-1.97;94.83;99287.13;1790553;79;20933;-79
2021/12/05 03:28:00;;;;;;;36.33;21.13;;;;;;;-1.92;94.94;99277.66;1769563;80;20964;-78
2021/12/05 03:30:27;;;;;;;21.43;14.30;;;;;;;-1.92;94.83;99279.50;1758722;81;21064;-78
2021/12/05 03:32:55;;;;;;;31.23;20.43;;;;;;;-1.97;94.84;99286.63;1716040;82;21541;-80
2021/12/05 03:35:26;;;;;;;39.97;22.10;;;;;;;-1.98;94.87;99292.06;1715918;82;20994;-78
2021/12/05 03:37:54;;;;;;;34.33;21.77;;;;;;;-2.02;94.82;99300.02;1726358;82;22008;-77
2021/12/05 03:40:23;;;;;;;29.23;21.47;;;;;;;-2.06;94.72;99304.80;1762937;81;21067;-78
2021/12/05 03:42:51;;;;;;;37.43;22.87;;;;;;;-2.05;94.77;99305.63;1735200;81;21024;-78
2021/12/05 03:45:24;;;;;;;27.43;20.37;;;;;;;-2.00;94.72;99301.46;1699447;82;21027;-79
2021/12/05 03:47:50;;;;;;;31.40;19.77;;;;;;;-2.00;94.52;99292.73;1705980;84;20968;-78
2021/12/05 03:50:17;;;;;;;34.70;23.87;;;;;;;-2.06;94.37;99296.90;1689415;81;21164;-78
2021/12/05 03:52:46;;;;;;;28.70;21.97;;;;;;;-2.12;94.51;99296.81;1715865;83;20921;-79
2021/12/05 03:55:14;;;;;;;32.63;21.97;;;;;;;-2.15;94.65;99293.20;1715995;83;21017;-79
2021/12/05 03:57:40;;;;;;;31.13;22.37;;;;;;;-2.15;94.68;99291.87;1708620;81;21041;-79
2021/12/05 04:00:19;;;;;;;34.30;22.67;;;;;;;-2.14;94.75;99289.58;1741682;80;21123;-78
2021/12/05 04:02:50;;;;;;;35.73;23.55;;;;;;;-2.14;94.80;99282.49;1756047;81;21782;-78
2021/12/05 04:05:20;;;;;;;32.23;24.13;;;;;;;-2.09;94.82;99294.63;1765215;81;20937;-77
2021/12/05 04:07:49;;;;;;;33.77;24.20;;;;;;;-2.06;94.72;99290.84;1746556;81;21466;-78
2021/12/05 04:10:18;;;;;;;31.50;21.77;;;;;;;-2.07;94.65;99290.02;1756364;81;20972;-78
2021/12/05 04:12:47;;;;;;;32.80;23.03;;;;;;;-2.11;94.57;99287.39;1715999;81;20977;-80
2021/12/05 04:15:14;;;;;;;29.03;20.47;;;;;;;-2.12;94.62;99284.46;1765946;81;21090;-80
2021/12/05 04:17:41;;;;;;;31.60;20.50;;;;;;;-2.12;94.75;99280.51;1765752;80;20974;-77
2021/12/05 04:20:10;;;;;;;29.10;23.40;;;;;;;-2.13;94.75;99279.36;1759682;81;21011;-83
2021/12/05 04:22:38;;;;;;;32.80;23.87;;;;;;;-2.14;94.88;99281.17;1693029;82;21076;-85
2021/12/05 04:25:09;;;;;;;37.30;23.67;;;;;;;-2.12;95.00;99278.38;1754723;81;21217;-84
2021/12/05 04:27:35;;;;;;;33.60;23.97;;;;;;;-2.09;95.03;99284.09;1765691;80;21085;-81
2021/12/05 04:30:04;;;;;;;32.90;24.70;;;;;;;-2.05;94.95;99291.95;1749016;80;21504;-84
2021/12/05 04:32:30;;;;;;;34.73;24.00;;;;;;;-2.16;94.76;99289.77;1721923;81;21017;-80
2021/12/05 04:34:57;;;;;;;37.80;24.10;;;;;;;-2.14;95.00;99294.84;1746512;81;21014;-82
2021/12/05 04:37:24;;;;;;;36.40;25.30;;;;;;;-2.17;94.93;99306.56;1765838;81;20962;-81
2021/12/05 04:39:52;;;;;;;34.73;24.67;;;;;;;-2.23;94.92;99300.19;1744728;81;21204;-79
2021/12/05 04:42:19;;;;;;;18.93;13.63;;;;;;;-2.21;95.04;99302.66;1701448;81;20988;-79
2021/12/05 04:44:45;;;;;;;38.70;25.27;;;;;;;-2.25;95.25;99304.80;1695477;82;21081;-80
2021/12/05 04:47:12;;;;;;;37.00;25.23;;;;;;;-2.26;95.27;99303.69;1735773;82;21026;-84
2021/12/05 04:49:41;;;;;;;29.07;21.33;;;;;;;-2.29;95.39;99301.38;1716747;82;20958;-83
2021/12/05 04:52:11;;;;;;;28.03;21.67;;;;;;;-2.27;95.64;99316.52;1718794;81;21164;-81
2021/12/05 04:54:38;;;;;;;42.23;24.50;;;;;;;-2.28;95.61;99316.20;1751429;81;21564;-83
2021/12/05 04:57:05;;;;;;;35.73;24.80;;;;;;;-2.28;95.76;99326.23;1746602;81;21029;-83
2021/12/05 04:59:35;;;;;;;35.73;23.70;;;;;;;-2.29;95.84;99328.54;1762558;81;21577;-77
2021/12/05 05:02:04;;;;;;;40.40;23.43;;;;;;;-2.28;95.87;99326.73;1713796;82;20993;-77
2021/12/05 05:04:36;;;;;;;30.90;21.47;;;;;;;-2.28;95.87;99327.55;1716408;82;21136;-77
2021/12/05 05:07:06;;;;;;;37.10;22.13;;;;;;;-2.31;95.81;99329.73;1715567;82;21558;-76
2021/12/05 05:09:33;;;;;;;42.30;25.90;;;;;;;-2.32;95.96;99331.53;1735400;82;21024;-77
2021/12/05 05:11:59;;;;;;;36.57;25.70;;;;;;;-2.25;96.04;99331.63;1727242;81;21004;-82
2021/12/05 05:14:27;;;;;;;33.97;23.23;;;;;;;-2.26;95.95;99329.52;1746392;81;21016;-82
2021/12/05 05:16:54;;;;;;;35.87;24.20;;;;;;;-2.26;95.89;99330.02;1724343;80;21201;-81
2021/12/05 05:19:27;;;;;;;35.40;24.27;;;;;;;-2.30;95.79;99333.97;1749842;81;20925;-81
2021/12/05 05:22:07;;;;;;;36.50;24.43;;;;;;;-2.34;95.85;99337.47;1743274;80;21036;-81
2021/12/05 05:46:13;;;;;;;45.70;29.90;;;;;;;-2.54;95.12;99338.91;1752051;81;21018;-79
2021/12/05 05:48:47;;;;;;;54.07;32.57;;;;;;;-2.55;95.14;99338.63;1771502;80;20980;-80
2021/12/05 05:51:09;;;;;;;38.80;27.00;;;;;;;-2.50;95.26;99342.05;1767750;80;21095;-83
2021/12/05 05:53:36;;;;;;;39.83;24.73;;;;;;;-2.53;94.91;99337.11;1743180;81;21047;-79
2021/12/05 05:56:04;;;;;;;38.03;25.93;;;;;;;-2.60;94.78;99338.81;1722035;83;21500;-78
2021/12/05 05:58:44;;;;;;;43.70;28.43;;;;;;;-2.60;95.13;99319.07;1698098;83;20964;-77
2021/12/05 06:01:18;;;;;;;33.13;23.20;;;;;;;-2.52;95.40;99322.46;1749308;81;21045;-78
2021/12/05 06:03:37;;;;;;;40.73;28.13;;;;;;;-2.48;95.38;99326.38;1763092;80;21220;-77
2021/12/05 06:06:06;;;;;;;55.90;33.10;;;;;;;-2.44;95.29;99339.51;1692309;83;21059;-78
2021/12/05 06:08:35;;;;;;;46.33;34.00;;;;;;;-2.44;94.97;99343.45;1741885;81;21082;-78
2021/12/05 06:11:08;;;;;;;50.83;35.23;;;;;;;-2.39;95.00;99335.03;1745329;81;21540;-80
2021/12/05 06:13:36;;;;;;;48.85;34.50;;;;;;;-2.33;94.89;99332.53;1693669;83;20986;-81
2021/12/05 06:16:07;;;;;;;49.47;33.00;;;;;;;-2.25;94.87;99324.55;1674092;85;21000;-81
2021/12/05 06:18:35;;;;;;;43.17;29.87;;;;;;;-2.15;94.68;99336.16;1675949;84;21008;-81
2021/12/05 06:21:03;;;;;;;47.60;30.30;;;;;;;-2.14;94.34;99333.86;1704219;82;21061;-89
2021/12/05 06:23:31;;;;;;;40.97;30.03;;;;;;;-2.10;94.18;99330.36;1720845;81;20940;-80
2021/12/05 06:25:58;;;;;;;44.70;28.83;;;;;;;-2.13;93.82;99334.19;1741701;82;20980;-78
2021/12/05 06:28:32;;;;;;;44.30;29.77;;;;;;;-2.16;93.69;99341.63;1738314;81;21099;-78
2021/12/05 06:31:00;;;;;;;49.67;32.70;;;;;;;-2.30;93.24;99353.73;1734434;82;21013;-78
2021/12/05 06:47:12;;;;;;;37.80;27.57;;;;;;;-2.99;93.96;99375.69;1739327;82;22107;-85
2021/12/05 06:49:41;;;;;;;49.53;33.83;;;;;;;-2.94;94.23;99389.15;1716596;82;21057;-82
2021/12/05 06:52:07;;;;;;;43.47;29.53;;;;;;;-2.91;94.46;99386.98;1710405;82;21500;-83
2021/12/05 06:54:39;;;;;;;42.17;29.93;;;;;;;-2.90;94.52;99390.45;1705924;84;21025;-84
2021/12/05 06:57:06;;;;;;;36.87;26.30;;;;;;;-2.96;94.51;99391.94;1735403;81;21076;-82
2021/12/05 06:59:34;;;;;;;46.67;28.83;;;;;;;-2.94;94.98;99393.92;1726372;81;21032;-83
2021/12/05 07:02:00;;;;;;;38.03;25.67;;;;;;;-2.92;95.13;99394.55;1725116;81;21068;-83
2021/12/05 07:07:09;;;;;;;41.97;27.67;;;;;;;-2.94;96.01;99404.44;1765604;81;21089;-82
2021/12/05 07:09:34;;;;;;;49.77;31.57;;;;;;;-2.91;96.62;99398.83;1766028;81;20973;-82
2021/12/05 07:12:46;;;;;;;41.50;28.10;;;;;;;-2.87;96.88;99405.87;1741579;81;21155;-81
2021/12/05 07:14:53;;;;;;;42.83;27.53;;;;;;;-2.80;97.25;99406.36;1715602;81;20968;-83
2021/12/05 07:20:02;;;;;;;48.97;29.23;;;;;;;-2.75;98.00;99404.03;1732673;81;21522;-84
2021/12/05 07:22:29;;;;;;;48.30;30.77;;;;;;;-2.66;98.33;99412.21;1739029;81;21020;-84
2021/12/05 07:25:04;;;;;;;47.90;28.73;;;;;;;-2.59;98.45;99416.30;1765050;81;22043;-83
2021/12/05 07:41:41;;;;;;;57.57;30.77;;;;;;;-2.29;99.34;99415.45;1739189;82;21597;-85
2021/12/05 07:43:50;;;;;;;41.20;25.20;;;;;;;-2.22;99.43;99409.82;1753955;81;21065;-77
2021/12/05 07:46:16;;;;;;;46.63;29.33;;;;;;;-2.14;99.44;99411.56;1746102;81;21095;-83
2021/12/05 07:48:45;;;;;;;53.93;34.33;;;;;;;-2.09;99.45;99411.86;1765954;81;21021;-83
2021/12/05 07:51:24;;;;;;;48.20;29.07;;;;;;;-2.11;99.09;99408.57;1761659;81;22043;-82
2021/12/05 07:54:10;;;;;;;47.33;26.70;;;;;;;-2.15;98.96;99413.87;1712712;81;21028;-84
2021/12/05 07:56:47;;;;;;;47.97;27.80;;;;;;;-2.14;98.98;99411.56;1760951;81;20936;-82
2021/12/05 07:59:31;;;;;;;52.10;31.67;;;;;;;-2.09;99.09;99417.13;1726530;82;21048;-81
2021/12/05 08:15:48;;;;;;;52.57;29.50;;;;;;;-1.63;98.99;99437.67;1735519;82;20974;-80
2021/12/05 08:18:09;;;;;;;54.40;30.13;;;;;;;-1.54;99.05;99441.09;1734074;82;21124;-79
2021/12/05 08:20:38;;;;;;;48.57;28.90;;;;;;;-1.49;98.78;99441.38;1735485;82;21511;-77
2021/12/05 08:23:05;;;;;;;45.00;28.87;;;;;;;-1.48;98.53;99441.17;1735858;81;21002;-78
2021/12/05 08:25:35;;;;;;;52.33;31.70;;;;;;;-1.45;98.54;99437.37;1705089;84;21070;-77
2021/12/05 08:28:42;;;;;;;46.03;29.67;;;;;;;-1.42;98.33;99439.64;1689075;82;20998;-77
2021/12/05 08:31:07;;;;;;;50.33;29.23;;;;;;;-1.42;98.24;99441.78;1700976;83;21058;-79
2021/12/05 08:43:59;;;;;;;48.57;28.60;;;;;;;-1.07;98.17;99435.02;1750029;80;21199;-83
2021/12/05 09:24:40;;;;;;;56.17;33.60;;;;;;;-0.14;94.70;99392.84;1758631;81;21160;-77
2021/12/05 10:08:27;;;;;;;40.30;25.63;;;;;;;0.31;92.07;99396.11;1735061;82;21026;-80
2021/12/05 10:13:08;;;;;;;48.97;30.40;;;;;;;0.41;90.63;99390.81;1731010;82;21570;-79
2021/12/05 10:15:45;;;;;;;46.40;27.67;;;;;;;0.47;90.88;99391.05;1711032;82;21046;-80
2021/12/05 10:38:19;;;;;;;46.43;30.20;;;;;;;0.47;89.86;99409.57;1658113;85;21026;-84
2021/12/05 10:41:01;;;;;;;43.47;27.17;;;;;;;0.61;89.95;99410.80;1733276;81;21055;-81
2021/12/05 10:43:24;;;;;;;47.87;27.07;;;;;;;0.75;89.91;99411.20;1755592;80;20987;-81
2021/12/05 10:45:56;;;;;;;43.43;28.70;;;;;;;0.78;89.02;99411.31;1756013;81;21167;-79
2021/12/05 10:48:36;;;;;;;47.20;31.23;;;;;;;0.76;88.89;99410.70;1676603;84;20967;-81
2021/12/05 10:51:10;;;;;;;40.00;27.87;;;;;;;0.76;88.95;99412.84;1748613;82;21049;-81
2021/12/05 10:53:56;;;;;;;50.20;30.30;;;;;;;0.78;89.00;99401.55;1734914;82;21072;-81
2021/12/05 10:56:28;;;;;;;47.07;28.87;;;;;;;0.83;88.91;99397.81;1705369;82;21001;-80
2021/12/05 10:59:03;;;;;;;45.50;27.33;;;;;;;0.75;88.37;99393.18;1748821;82;21125;-79
2021/12/05 11:01:42;;;;;;;38.70;25.77;;;;;;;0.68;88.48;99408.19;1696693;83;21123;-78
2021/12/05 11:04:14;;;;;;;38.60;26.33;;;;;;;0.65;88.54;99416.52;1752672;81;21073;-80
2021/12/05 11:06:53;;;;;;;42.37;24.90;;;;;;;0.63;88.65;99419.84;1727252;81;21027;-81
2021/12/05 11:09:30;;;;;;;40.60;26.43;;;;;;;0.60;88.81;99421.56;1754020;81;21068;-79
2021/12/05 11:12:14;;;;;;;42.63;26.13;;;;;;;0.60;88.79;99425.54;1730635;81;21555;-82
2021/12/05 11:14:49;;;;;;;38.93;23.47;;;;;;;0.50;88.60;99432.98;1717004;81;21084;-82
2021/12/05 11:17:25;;;;;;;46.17;25.73;;;;;;;0.47;88.83;99426.77;1731968;81;20980;-84
2021/12/05 11:20:02;;;;;;;38.20;22.27;;;;;;;0.47;89.07;99425.44;1754033;81;21044;-84
2021/12/05 11:22:40;;;;;;;34.67;23.67;;;;;;;0.57;89.40;99416.17;1758783;80;21038;-85
2021/12/05 11:25:11;;;;;;;35.57;22.87;;;;;;;0.56;88.90;99410.56;1732951;81;21867;-84
2021/12/05 11:27:46;;;;;;;36.10;25.23;;;;;;;0.50;88.89;99406.03;1753471;80;20993;-84
2021/12/05 11:30:16;;;;;;;43.03;23.47;;;;;;;0.48;89.20;99409.89;1731548;80;21073;-78
2021/12/05 11:33:02;;;;;;;37.63;22.53;;;;;;;0.50;89.48;99408.67;1715379;82;21096;-87
2021/12/05 11:35:39;;;;;;;35.73;23.13;;;;;;;0.58;89.66;99412.99;1731597;81;21118;-79
2021/12/05 11:38:22;;;;;;;38.63;25.73;;;;;;;0.65;89.45;99416.02;1728077;82;21329;-85
2021/12/05 11:41:06;;;;;;;37.07;21.03;;;;;;;0.62;88.98;99413.77;1720661;83;20984;-90
2021/12/05 11:43:46;;;;;;;32.15;19.98;;;;;;;0.70;89.19;99410.14;1712102;82;20968;-87
2021/12/05 11:46:16;;;;;;;37.50;25.47;;;;;;;0.71;88.32;99399.37;1734722;82;20997;-88
2021/12/05 11:48:55;;;;;;;33.10;22.93;;;;;;;0.60;87.82;99395.92;1719322;82;20980;-87
2021/12/05 11:51:36;;;;;;;35.63;23.60;;;;;;;0.57;88.19;99389.71;1764799;80;21128;-84
2021/12/05 11:54:10;;;;;;;39.17;25.60;;;;;;;0.57;88.22;99388.39;1740697;81;21156;-82
2021/12/05 11:56:51;;;;;;;40.20;23.80;;;;;;;0.60;88.27;99406.52;1734353;81;20968;-81
2021/12/05 11:59:34;;;;;;;37.20;23.10;;;;;;;0.62;88.24;99411.12;1731691;81;21030;-79
2021/12/05 12:02:19;;;;;;;31.67;22.33;;;;;;;0.64;88.13;99407.76;1691302;82;46367;-80
2021/12/05 12:05:08;;;;;;;35.57;23.40;;;;;;;0.65;88.02;99402.78;1720276;82;21113;-86
2021/12/05 12:08:00;;;;;;;34.73;21.57;;;;;;;0.67;87.73;99399.42;1741088;82;21503;-79
2021/12/05 12:10:44;;;;;;;37.03;22.90;;;;;;;0.66;87.68;99391.20;1721485;82;21654;-79
2021/12/05 12:13:20;;;;;;;32.93;22.13;;;;;;;0.70;87.61;99404.84;1720098;81;21157;-78
2021/12/05 12:15:58;;;;;;;38.63;25.33;;;;;;;0.69;87.55;99405.86;1720190;82;21143;-79
2021/12/05 12:18:26;;;;;;;41.80;25.00;;;;;;;0.65;87.48;99402.78;1723505;82;21141;-78
2021/12/05 12:20:47;;;;;;;44.70;27.97;;;;;;;0.58;87.44;99398.44;1721021;82;21056;-81
2021/12/05 12:23:15;;;;;;;42.43;29.87;;;;;;;0.53;87.53;99392.41;1740254;81;21012;-81
2021/12/05 12:25:43;;;;;;;38.43;24.80;;;;;;;0.47;87.52;99389.73;1721069;81;21116;-77
2021/12/05 12:28:10;;;;;;;35.70;23.17;;;;;;;0.48;87.40;99384.75;1669651;83;21110;-77
2021/12/05 12:30:41;;;;;;;41.03;27.67;;;;;;;0.47;87.19;99391.05;1715374;82;21046;-80
2021/12/05 12:33:21;;;;;;;40.83;28.80;;;;;;;0.37;86.95;99394.85;1712241;82;21024;-79
2021/12/05 12:35:48;;;;;;;48.40;30.80;;;;;;;0.29;87.13;99392.33;1738233;80;21065;-80
2021/12/05 12:38:33;;;;;;;57.57;32.87;;;;;;;0.22;87.42;99395.94;1713044;82;21018;-82
2021/12/05 12:41:04;;;;;;;57.37;34.30;;;;;;;0.12;87.76;99392.79;1724034;81;21028;-80
2021/12/05 12:44:01;;;;;;;47.63;29.83;;;;;;;0.10;88.02;99405.37;1745619;81;21698;-79
2021/12/05 12:46:49;;;;;;;52.73;33.07;;;;;;;0.16;88.39;99404.62;1745797;81;21010;-80
2021/12/05 12:49:21;;;;;;;49.03;32.53;;;;;;;0.22;88.39;99414.45;1711634;82;21538;-82
2021/12/05 12:52:05;;;;;;;51.70;33.30;;;;;;;0.24;87.96;99416.41;1746905;81;21107;-83
2021/12/05 12:54:50;;;;;;;48.87;32.67;;;;;;;0.17;87.54;99415.02;1735274;82;21044;-85
2021/12/05 12:57:31;;;;;;;47.23;31.17;;;;;;;0.03;87.44;99420.37;1751462;81;21128;-88
2021/12/05 13:00:15;;;;;;;48.95;33.88;;;;;;;-0.05;87.73;99418.67;1748937;81;21036;-79
2021/12/05 13:11:13;;;;;;;;;;;;;;;-0.13;88.92;99418.78;1748317;81;21544;-79
2021/12/05 13:13:43;;;;;;;47.30;33.63;;;;;;;-0.17;89.09;99413.05;1725828;82;20170;-78
2021/12/05 13:16:20;;;;;;;60.23;31.47;;;;;;;-0.17;89.13;99411.73;1716468;80;21105;-79
2021/12/05 13:18:49;;;;;;;55.13;36.20;;;;;;;-0.28;88.99;99410.89;1715397;82;21342;-78
2021/12/05 13:21:35;;;;;;;58.53;39.67;;;;;;;-0.36;89.03;99420.77;1719425;82;21020;-79
2021/12/05 13:23:59;;;;;;;54.87;37.20;;;;;;;-0.37;89.15;99419.94;1715265;83;22335;-77
2021/12/05 13:26:38;;;;;;;55.70;34.80;;;;;;;-0.32;89.07;99416.74;1713100;82;21060;-77
2021/12/05 13:29:22;;;;;;;56.63;32.57;;;;;;;-0.34;88.48;99422.23;1724319;82;20937;-79
2021/12/05 13:31:57;;;;;;;55.00;35.80;;;;;;;-0.43;88.38;99434.41;1702101;83;21126;-77
2021/12/05 13:34:45;;;;;;;54.30;36.47;;;;;;;-0.47;88.56;99426.02;1703424;83;21588;-78
2021/12/05 13:37:17;;;;;;;56.83;35.83;;;;;;;-0.45;88.70;99431.45;1717966;82;21051;-77
2021/12/05 13:39:52;;;;;;;57.57;36.83;;;;;;;-0.39;88.69;99431.22;1744984;82;20937;-76
2021/12/05 13:42:42;;;;;;;47.93;32.30;;;;;;;-0.32;88.76;99428.63;1707758;82;21572;-78
2021/12/05 13:45:22;;;;;;;59.20;34.87;;;;;;;-0.30;88.32;99427.45;1723089;82;21019;-78
2021/12/05 13:48:00;;;;;;;46.27;31.27;;;;;;;-0.29;88.07;99434.88;1726324;82;21028;-78
2021/12/05 13:50:34;;;;;;;54.70;31.43;;;;;;;-0.24;88.11;99432.50;1726540;81;21007;-79
2021/12/05 13:53:12;;;;;;;47.37;29.50;;;;;;;-0.29;87.84;99429.10;1714838;82;21536;-79
2021/12/05 13:55:43;;;;;;;44.87;32.10;;;;;;;-0.37;87.94;99421.77;1700569;82;21043;-77
2021/12/05 13:58:38;;;;;;;42.00;29.30;;;;;;;-0.49;88.24;99428.05;1738947;82;21056;-77
2021/12/05 14:01:23;;;;;;;;;;;;;;;-0.49;88.43;99429.37;1733635;81;21039;-77
2021/12/05 14:04:21;;;;;;;46.10;30.37;;;;;;;-0.46;88.51;99428.98;1721640;82;21041;-77
2021/12/05 14:06:58;;;;;;;42.47;27.60;;;;;;;-0.43;88.52;99430.45;1741470;81;21589;-78
2021/12/05 14:09:43;;;;;;;52.10;34.13;;;;;;;-0.43;88.52;99433.89;1741811;81;21540;-78
2021/12/05 14:12:24;;;;;;;53.60;34.37;;;;;;;-0.42;88.68;99434.21;1724314;82;21540;-79
2021/12/05 14:14:55;;;;;;;48.50;33.07;;;;;;;-0.40;88.88;99436.17;1735093;81;20940;-80
2021/12/05 14:17:35;;;;;;;43.30;29.97;;;;;;;-0.34;89.06;99426.20;1716406;83;22212;-76
2021/12/05 14:20:17;;;;;;;38.13;25.50;;;;;;;-0.32;88.99;99424.67;1715994;82;20975;-78
2021/12/05 14:22:46;;;;;;;37.77;22.00;;;;;;;-0.37;88.91;99441.58;1699817;83;21027;-77
2021/12/05 14:25:15;;;;;;;39.67;26.83;;;;;;;-0.47;89.20;99442.69;1697190;83;21106;-77
2021/12/05 14:27:49;;;;;;;42.10;28.03;;;;;;;-0.48;89.42;99441.05;1716144;83;21678;-75
2021/12/05 14:30:19;;;;;;;42.57;28.97;;;;;;;-0.49;89.79;99443.40;1728155;81;22034;-77
2021/12/05 14:32:48;;;;;;;40.53;26.53;;;;;;;-0.52;90.14;99442.42;1693802;84;21027;-77
2021/12/05 14:35:18;;;;;;;40.20;29.47;;;;;;;-0.52;90.48;99446.88;1722533;81;21011;-76
2021/12/05 14:37:46;;;;;;;46.17;29.93;;;;;;;-0.55;90.77;99450.73;1731043;81;21036;-78
2021/12/05 14:40:19;;;;;;;31.57;22.40;;;;;;;-0.57;91.16;99447.94;1730311;81;21095;-76
2021/12/05 14:42:48;;;;;;;39.67;27.42;;;;;;;-0.59;91.49;99451.28;1742818;81;21819;-76
2021/12/05 14:45:19;;;;;;;39.63;26.67;;;;;;;-0.59;91.41;99458.70;1735500;81;21015;-78
2021/12/05 14:47:46;;;;;;;34.77;24.23;;;;;;;-0.61;91.34;99462.52;1722702;83;21548;-77
2021/12/05 14:50:20;;;;;;;36.43;23.70;;;;;;;-0.66;91.14;99470.99;1723231;82;21548;-78
2021/12/05 14:52:50;;;;;;;36.60;22.87;;;;;;;-0.72;90.93;99466.44;1751152;81;21091;-80
2021/12/05 14:55:18;;;;;;;36.40;23.93;;;;;;;-0.73;90.82;99478.02;1749085;81;22357;-77
2021/12/05 14:57:52;;;;;;;33.33;23.80;;;;;;;-0.81;90.12;99469.34;1725635;81;21564;-75
2021/12/05 15:00:24;;;;;;;32.25;22.50;;;;;;;-0.89;90.08;99469.77;1744772;81;21113;-77
2021/12/05 15:03:07;;;;;;;29.63;22.75;;;;;;;-1.00;89.92;99470.71;1689229;83;21096;-77
2021/12/05 15:05:36;;;;;;;29.80;22.25;;;;;;;-1.06;90.06;99482.02;1714567;82;21091;-81
2021/12/05 15:08:08;;;;;;;32.13;22.60;;;;;;;-1.09;90.18;99487.62;1731438;82;21130;-77
2021/12/05 15:10:34;;;;;;;33.40;23.93;;;;;;;-1.10;90.11;99480.70;1741862;82;21216;-77
2021/12/05 15:13:02;;;;;;;34.37;21.13;;;;;;;-1.06;90.14;99490.75;1742540;82;21023;-79
2021/12/05 15:15:28;;;;;;;32.10;23.00;;;;;;;-1.03;90.09;99493.02;1727384;81;21094;-78
2021/12/05 15:17:57;;;;;;;34.33;23.80;;;;;;;-1.01;90.04;99492.84;1734398;82;21507;-77
2021/12/05 15:20:32;;;;;;;37.33;25.83;;;;;;;-0.94;90.10;99491.94;1713287;82;21010;-77
2021/12/05 15:23:07;;;;;;;40.15;24.70;;;;;;;-0.93;89.74;99498.86;1702938;83;21556;-78
2021/12/05 15:25:37;;;;;;;37.00;22.50;;;;;;;-0.96;89.57;99504.48;1703357;83;21008;-78
2021/12/05 15:28:06;;;;;;;33.40;22.03;;;;;;;-1.02;89.62;99511.82;1712736;83;21095;-79
2021/12/05 15:30:39;;;;;;;29.60;20.70;;;;;;;-1.08;89.81;99505.11;1730875;82;22599;-81
2021/12/05 15:33:20;;;;;;;31.80;21.83;;;;;;;-1.12;90.02;99505.16;1727808;81;21123;-78
2021/12/05 15:35:47;;;;;;;29.40;22.70;;;;;;;-1.12;90.35;99511.25;1706151;82;21040;-79
2021/12/05 15:38:21;;;;;;;30.87;22.33;;;;;;;-1.08;90.55;99512.53;1714773;83;20941;-79
2021/12/05 15:40:46;;;;;;;40.33;30.53;;;;;;;-1.07;90.54;99518.13;1731772;81;21095;-80
2021/12/05 15:43:20;;;;;;;34.13;25.37;;;;;;;-1.06;90.52;99521.10;1740162;81;21572;-78
2021/12/05 15:45:49;;;;;;;30.10;21.07;;;;;;;-1.04;90.51;99518.27;1738431;81;23321;-78
2021/12/05 15:48:29;;;;;;;36.57;22.10;;;;;;;-1.03;90.54;99514.13;1708962;81;21023;-78
2021/12/05 15:50:55;;;;;;;38.03;24.53;;;;;;;-1.02;90.44;99514.95;1701493;83;20932;-74
2021/12/05 15:53:23;;;;;;;34.67;25.53;;;;;;;-1.03;90.22;99517.27;1729772;81;21175;-76
2021/12/05 15:55:57;;;;;;;36.23;22.73;;;;;;;-1.01;90.21;99513.96;1725431;81;21011;-73
2021/12/05 15:58:31;;;;;;;44.80;27.03;;;;;;;-1.05;90.12;99504.73;1681283;81;20952;-78
2021/12/05 16:01:05;;;;;;;40.80;26.17;;;;;;;-1.05;90.07;99506.06;1715520;82;20991;-81
2021/12/05 16:03:58;;;;;;;45.53;27.17;;;;;;;-1.10;90.03;99504.45;1739954;82;21485;-78
2021/12/05 16:06:39;;;;;;;48.63;33.53;;;;;;;-1.08;90.19;99500.66;1750551;81;21584;-81
2021/12/05 16:09:21;;;;;;;44.33;28.57;;;;;;;-1.06;90.17;99496.03;1752364;81;21422;-78
2021/12/05 16:11:49;;;;;;;43.17;29.73;;;;;;;-1.05;90.18;99508.70;1725398;82;21164;-80
2021/12/05 16:14:28;;;;;;;43.90;27.57;;;;;;;-1.05;90.23;99502.92;1703249;83;21054;-81
2021/12/05 16:16:54;;;;;;;42.57;31.00;;;;;;;-1.05;90.25;99498.97;1730472;82;21533;-80
2021/12/05 16:19:20;;;;;;;40.57;28.37;;;;;;;-1.13;90.25;99500.87;1729954;82;21049;-83
2021/12/05 16:21:47;;;;;;;53.63;33.20;;;;;;;-1.16;90.43;99503.88;1742452;82;21037;-75
2021/12/05 16:24:17;;;;;;;46.17;31.40;;;;;;;-1.19;90.60;99497.13;1694665;83;21787;-77
2021/12/05 16:26:45;;;;;;;48.63;32.07;;;;;;;-1.14;90.92;99495.27;1693679;82;21013;-74
2021/12/05 16:29:22;;;;;;;48.00;33.37;;;;;;;-1.11;91.04;99491.80;1707993;83;21045;-83
2021/12/05 16:31:57;;;;;;;49.83;31.27;;;;;;;-1.14;90.80;99489.48;1711217;82;21040;-83
2021/12/05 16:34:29;;;;;;;48.80;31.63;;;;;;;-1.22;90.95;99488.75;1684737;84;21136;-82
2021/12/05 16:37:02;;;;;;;56.87;32.00;;;;;;;-1.27;91.23;99477.92;1712734;82;21017;-77
2021/12/05 16:39:37;;;;;;;48.27;29.43;;;;;;;-1.28;91.34;99486.33;1742349;82;21095;-74
2021/12/05 16:42:15;;;;;;;56.93;34.00;;;;;;;-1.32;91.66;99485.88;1741838;82;21079;-73
2021/12/05 16:44:42;;;;;;;54.07;34.67;;;;;;;-1.36;91.81;99495.14;1723492;81;21043;-74
2021/12/05 16:47:12;;;;;;;59.80;36.60;;;;;;;-1.28;92.07;99490.78;1703711;81;21520;-72
2021/12/05 16:49:42;;;;;;;50.73;30.77;;;;;;;-1.24;91.97;99492.88;1748948;81;22327;-72
2021/12/05 16:52:15;;;;;;;54.00;31.90;;;;;;;-1.24;91.81;99482.83;1722147;83;20974;-82
2021/12/05 16:54:54;;;;;;;50.73;33.35;;;;;;;-1.21;91.80;99483.80;1723126;83;22108;-85
2021/12/05 16:57:28;;;;;;;57.03;35.50;;;;;;;-1.26;91.65;99481.70;1728498;81;21140;-85